createdAt,value
2023-03-13T00:00:40.837Z,1.42
2023-03-13T00:04:40.520Z,1.73
2023-03-13T00:08:40.581Z,1.1
2023-03-13T00:12:40.538Z,1.42
2023-03-13T00:16:40.638Z,1.4
2023-03-13T00:20:40.601Z,2.1
2023-03-13T00:24:40.607Z,1.6
2023-03-13T00:28:40.880Z,1.8
2023-03-13T00:32:40.620Z,2.12
2023-03-13T00:36:40.582Z,1.37
2023-03-13T00:40:40.514Z,1.37
2023-03-13T00:44:40.300Z,1.9
2023-03-13T00:48:39.694Z,1.58
2023-03-13T00:52:40.357Z,2.1
2023-03-13T00:56:40.567Z,1.6
2023-03-13T01:00:39.917Z,1.55
2023-03-13T01:04:40.789Z,2.33
2023-03-13T01:08:40.514Z,1.65
2023-03-13T01:12:40.342Z,1.8
2023-03-13T01:16:40.478Z,2.08
2023-03-13T01:20:40.577Z,2.3
2023-03-13T01:24:40.527Z,2.3
2023-03-13T01:28:40.622Z,3.05
2023-03-13T01:32:40.666Z,2.5
2023-03-13T01:36:40.685Z,1.92
2023-03-13T01:40:40.508Z,2.37
2023-03-13T01:44:40.537Z,3.1
2023-03-13T01:48:40.802Z,2.4
2023-03-13T01:52:40.638Z,3.17
2023-03-13T01:56:40.529Z,2.62
2023-03-13T02:00:39.373Z,3.33
2023-03-13T02:04:40.582Z,2.95
2023-03-13T02:08:40.499Z,3.28
2023-03-13T02:12:40.556Z,2.83
2023-03-13T02:16:40.750Z,2.55
2023-03-13T02:20:40.565Z,2.78
2023-03-13T02:24:40.456Z,3.62
2023-03-13T02:28:40.814Z,2.78
2023-03-13T02:32:40.690Z,2.75
2023-03-13T02:36:40.463Z,2.2
2023-03-13T02:40:40.627Z,3.83
2023-03-13T02:44:39.648Z,3.95
2023-03-13T02:48:40.308Z,3.67
2023-03-13T02:52:40.676Z,4.55
2023-03-13T02:56:40.592Z,3.28
2023-03-13T03:00:40.556Z,2.8
2023-03-13T03:04:40.569Z,2.85
2023-03-13T03:08:40.530Z,2.53
2023-03-13T03:12:41.008Z,3.33
2023-03-13T03:16:40.580Z,2.97
2023-03-13T03:20:40.680Z,2.72
2023-03-13T03:24:40.596Z,4.07
2023-03-13T03:28:40.650Z,3.03
2023-03-13T03:32:40.827Z,4.93
2023-03-13T03:36:40.480Z,3.05
2023-03-13T03:40:40.535Z,3
2023-03-13T03:44:40.004Z,4.5
2023-03-13T03:48:41.187Z,3.1
2023-03-13T03:52:40.549Z,3.47
2023-03-13T03:56:40.464Z,3.55
2023-03-13T04:00:40.814Z,3.3
2023-03-13T04:04:40.869Z,2.72
2023-03-13T04:08:41.195Z,5.18
2023-03-13T04:12:40.512Z,3.35
2023-03-13T04:16:40.630Z,4.7
2023-03-13T04:20:40.487Z,3.4
2023-03-13T04:24:40.762Z,3.3
2023-03-13T04:28:40.564Z,3.7
2023-03-13T04:32:39.640Z,2.83
2023-03-13T04:36:40.550Z,2.95
2023-03-13T04:40:40.536Z,2.8
2023-03-13T04:44:43.400Z,3.3
2023-03-13T04:48:40.601Z,3.22
2023-03-13T04:52:40.474Z,3.1
2023-03-13T04:56:44.360Z,4.8
2023-03-13T05:00:41.013Z,2.95
2023-03-13T05:04:40.449Z,3.53
2023-03-13T05:08:40.589Z,3.12
2023-03-13T05:12:40.954Z,3.5
2023-03-13T05:16:40.518Z,3.12
2023-03-13T05:20:40.458Z,4.57
2023-03-13T05:24:41.969Z,3.53
2023-03-13T05:28:40.658Z,3.3
2023-03-13T05:32:41.024Z,2.6
2023-03-13T05:36:40.420Z,2.8
2023-03-13T05:40:41.326Z,3.25
2023-03-13T05:44:40.510Z,3.15
2023-03-13T05:48:40.460Z,3
2023-03-13T05:52:40.708Z,3.42
2023-03-13T05:56:40.475Z,3.42
2023-03-13T06:00:40.205Z,2.95
2023-03-13T06:04:40.788Z,3.7
2023-03-13T06:08:40.539Z,4.03
2023-03-13T06:12:40.709Z,3.05
2023-03-13T06:16:39.793Z,3.1
2023-03-13T06:20:42.531Z,3
2023-03-13T06:24:40.329Z,3.37
2023-03-13T06:28:40.654Z,2.62
2023-03-13T06:32:40.744Z,3.03
2023-03-13T06:36:40.584Z,3.58
2023-03-13T06:40:40.359Z,2.8
2023-03-13T06:44:39.463Z,2.75
2023-03-13T06:48:40.563Z,2.7
2023-03-13T06:52:44.138Z,2.35
2023-03-13T06:56:41.036Z,2.6
2023-03-13T07:00:40.807Z,3.58
2023-03-13T07:04:40.504Z,3
2023-03-13T07:08:40.635Z,4.55
2023-03-13T07:12:40.475Z,2.4
2023-03-13T07:16:41.368Z,3.1
2023-03-13T07:20:41.291Z,3.62
2023-03-13T07:24:40.707Z,2.72
2023-03-13T07:28:40.582Z,3.37
2023-03-13T07:32:41.287Z,2.65
2023-03-13T07:36:40.547Z,3.25
2023-03-13T07:40:40.564Z,4.53
2023-03-13T07:44:39.842Z,3.25
2023-03-13T07:48:40.819Z,4.07
2023-03-13T07:52:40.541Z,3.83
2023-03-13T07:56:40.341Z,5.25
2023-03-13T08:00:40.457Z,4.57
2023-03-13T08:04:40.517Z,5.22
2023-03-13T08:08:40.618Z,5.87
2023-03-13T08:12:40.449Z,5.7
2023-03-13T08:16:40.574Z,5.18
2023-03-13T08:20:40.684Z,6
2023-03-13T08:24:40.519Z,7.1
2023-03-13T08:28:40.830Z,7.9
2023-03-13T08:32:40.662Z,8.35
2023-03-13T08:36:40.355Z,7.75
2023-03-13T08:40:40.523Z,7.93
2023-03-13T08:44:40.606Z,8.25
2023-03-13T08:48:40.517Z,7.9
2023-03-13T08:52:40.614Z,7.6
2023-03-13T08:56:40.258Z,7.82
2023-03-13T09:00:40.679Z,7.55
2023-03-13T09:04:40.478Z,6.95
2023-03-13T09:08:40.581Z,8.55
2023-03-13T09:12:40.734Z,7.8
2023-03-13T09:16:40.326Z,8.73
2023-03-13T09:20:40.662Z,7.35
2023-03-13T09:24:40.059Z,8.6
2023-03-13T09:28:40.535Z,7.28
2023-03-13T09:32:40.663Z,7.6
2023-03-13T09:36:41.212Z,8.07
2023-03-13T09:40:40.592Z,6.78
2023-03-13T09:44:40.527Z,6.7
2023-03-13T09:48:40.609Z,7.12
2023-03-13T09:52:40.716Z,7.45
2023-03-13T09:56:41.265Z,6.2
2023-03-13T10:00:40.617Z,7.85
2023-03-13T10:04:41.931Z,6.37
2023-03-13T10:08:40.544Z,5.28
2023-03-13T10:12:40.793Z,5.93
2023-03-13T10:16:39.988Z,4.57
2023-03-13T10:20:39.366Z,4.05
2023-03-13T10:24:40.767Z,5.18
2023-03-13T10:28:40.564Z,4.68
2023-03-13T10:32:40.635Z,4.18
2023-03-13T10:36:40.292Z,4.32
2023-03-13T10:40:40.516Z,3.62
2023-03-13T10:44:40.525Z,4
2023-03-13T10:48:40.557Z,3.92
2023-03-13T10:52:40.895Z,3.03
2023-03-13T10:56:40.409Z,2.7
2023-03-13T11:00:40.730Z,4.37
2023-03-13T11:04:40.706Z,1.95
2023-03-13T11:08:40.701Z,2
2023-03-13T11:12:41.079Z,2.1
2023-03-13T11:16:40.559Z,2.25
2023-03-13T11:20:40.645Z,2.1
2023-03-13T11:24:40.568Z,2.55
2023-03-13T11:28:40.737Z,2.42
2023-03-13T11:32:41.190Z,1.58
2023-03-13T11:36:40.615Z,1.55
2023-03-13T11:40:40.583Z,1.9
2023-03-13T11:44:41.045Z,1.7
2023-03-13T11:48:40.285Z,1.27
2023-03-13T11:52:40.583Z,1.83
2023-03-13T11:56:40.595Z,1.7
2023-03-13T12:00:39.877Z,1.15
2023-03-13T12:04:41.019Z,1.6
2023-03-13T12:08:40.923Z,0.9
2023-03-13T12:12:40.499Z,1.37
2023-03-13T12:16:40.652Z,1.42
2023-03-13T12:20:40.504Z,1.25
2023-03-13T12:24:40.814Z,1.15
2023-03-13T12:28:40.574Z,0.93
2023-03-13T12:32:40.806Z,0.9
2023-03-13T12:36:40.532Z,1.1
2023-03-13T12:40:40.869Z,1.2
2023-03-13T12:44:41.111Z,0.8
2023-03-13T12:48:40.503Z,0.75
2023-03-13T12:52:40.588Z,0.57
2023-03-13T12:56:40.631Z,0.62
2023-03-13T13:00:40.570Z,0.85
2023-03-13T13:04:40.495Z,0.7
2023-03-13T13:08:40.639Z,0.57
2023-03-13T13:12:40.607Z,0.98
2023-03-13T13:16:40.568Z,0.93
2023-03-13T13:20:40.590Z,0.8
2023-03-13T13:24:40.342Z,0.55
2023-03-13T13:28:40.588Z,0.6
2023-03-13T13:32:40.765Z,0.6
2023-03-13T13:36:41.261Z,0.75
2023-03-13T13:40:40.612Z,0.6
2023-03-13T13:44:40.446Z,0.5
2023-03-13T13:48:40.497Z,0.4
2023-03-13T13:52:40.454Z,0.55
2023-03-13T13:56:40.550Z,0.5
2023-03-13T14:00:41.007Z,0.55
2023-03-13T14:04:40.864Z,0.68
2023-03-13T14:08:40.622Z,0.6
2023-03-13T14:12:40.779Z,0.7
2023-03-13T14:16:40.374Z,0.75
2023-03-13T14:20:40.933Z,0.7
2023-03-13T14:24:40.396Z,0.68
2023-03-13T14:28:40.636Z,0.5
2023-03-13T14:32:40.608Z,0.6
2023-03-13T14:36:40.518Z,0.7
2023-03-13T14:40:40.467Z,0.7
2023-03-13T14:44:39.347Z,0.57
2023-03-13T14:48:40.593Z,0.8
2023-03-13T14:52:40.617Z,0.55
2023-03-13T14:56:40.574Z,0.95
2023-03-13T15:00:40.952Z,0.95
2023-03-13T15:04:40.723Z,0.77
2023-03-13T15:08:40.542Z,0.9
2023-03-13T15:12:40.823Z,0.9
2023-03-13T15:16:40.400Z,0.8
2023-03-13T15:20:40.755Z,0.7
2023-03-13T15:24:40.573Z,0.55
2023-03-13T15:28:40.651Z,0.57
2023-03-13T15:32:40.805Z,0.77
2023-03-13T15:36:40.481Z,1.15
2023-03-13T15:40:39.301Z,0.88
2023-03-13T15:44:40.482Z,0.9
2023-03-13T15:48:40.538Z,0.8
2023-03-13T15:52:40.527Z,1
2023-03-13T15:56:40.576Z,0.88
2023-03-13T16:00:40.676Z,0.8
2023-03-13T16:04:40.689Z,0.7
2023-03-13T16:08:40.594Z,0.62
2023-03-13T16:12:40.718Z,1.37
2023-03-13T16:16:40.727Z,0.65
2023-03-13T16:20:40.538Z,0.95
2023-03-13T16:24:40.738Z,0.8
2023-03-13T16:28:40.907Z,0.73
2023-03-13T16:32:41.260Z,0.77
2023-03-13T16:36:40.617Z,0.73
2023-03-13T16:40:40.476Z,0.85
2023-03-13T16:44:40.604Z,1.05
2023-03-13T16:48:40.746Z,1.1
2023-03-13T16:52:40.407Z,0.88
2023-03-13T16:56:40.696Z,0.9
2023-03-13T17:00:41.096Z,0.73
2023-03-13T17:04:43.133Z,0.8
2023-03-13T17:08:39.672Z,0.9
2023-03-13T17:12:40.646Z,0.7
2023-03-13T17:16:39.971Z,0.7
2023-03-13T17:20:41.040Z,0.6
2023-03-13T17:24:40.460Z,0.95
2023-03-13T17:28:40.521Z,1.67
2023-03-13T17:32:40.770Z,0.98
2023-03-13T17:36:40.516Z,0.95
2023-03-13T17:40:40.639Z,0.8
2023-03-13T17:44:39.267Z,1.1
2023-03-13T17:48:40.565Z,0.8
2023-03-13T17:52:40.279Z,0.9
2023-03-13T17:56:39.348Z,0.9
2023-03-13T18:00:40.779Z,0.9
2023-03-13T18:04:40.635Z,0.98
2023-03-13T18:08:40.562Z,1.02
2023-03-13T18:12:40.505Z,1.02
2023-03-13T18:16:40.380Z,1.2
2023-03-13T18:20:40.568Z,1.27
2023-03-13T18:24:39.339Z,1
2023-03-13T18:28:41.190Z,1.1
2023-03-13T18:32:40.796Z,1.17
2023-03-13T18:36:40.672Z,1.02
2023-03-13T18:40:40.725Z,1.15
2023-03-13T18:44:40.525Z,0.98
2023-03-13T18:48:40.576Z,1.17
2023-03-13T18:52:40.551Z,1.48
2023-03-13T18:56:40.325Z,1.4
2023-03-13T19:00:40.900Z,1.4
2023-03-13T19:04:40.530Z,1
2023-03-13T19:08:40.759Z,1.5
2023-03-13T19:12:40.568Z,1.2
2023-03-13T19:16:40.673Z,1.4
2023-03-13T19:20:40.662Z,1.3
2023-03-13T19:24:40.575Z,1.37
2023-03-13T19:28:40.450Z,1.3
2023-03-13T19:32:40.691Z,1.27
2023-03-13T19:36:40.471Z,1.12
2023-03-13T19:40:40.636Z,1.67
2023-03-13T19:44:40.623Z,1.25
2023-03-13T19:48:40.333Z,1.33
2023-03-13T19:52:39.731Z,1.35
2023-03-13T19:56:40.477Z,1.73
2023-03-13T20:00:40.577Z,1.65
2023-03-13T20:04:40.733Z,1.2
2023-03-13T20:08:40.508Z,1.52
2023-03-13T20:12:40.668Z,1.37
2023-03-13T20:16:40.244Z,1.25
2023-03-13T20:20:40.997Z,1.45
2023-03-13T20:24:40.524Z,1.25
2023-03-13T20:28:40.553Z,0.85
2023-03-13T20:32:52.920Z,1.3
2023-03-13T20:36:40.695Z,1.12
2023-03-13T20:40:40.386Z,0.85
2023-03-13T20:44:40.456Z,0.9
2023-03-13T20:48:41.306Z,0.7
2023-03-13T20:52:40.595Z,0.77
2023-03-13T20:56:40.564Z,0.7
2023-03-13T21:00:40.561Z,0.7
2023-03-13T21:04:40.519Z,0.73
2023-03-13T21:08:40.514Z,0.68
2023-03-13T21:12:40.500Z,0.4
2023-03-13T21:16:40.588Z,0.65
2023-03-13T21:20:40.461Z,0.77
2023-03-13T21:24:40.521Z,0.5
2023-03-13T21:28:40.550Z,0.5
2023-03-13T21:32:40.749Z,0.5
2023-03-13T21:36:40.610Z,0.57
2023-03-13T21:40:40.844Z,0.4
2023-03-13T21:44:41.220Z,0.7
2023-03-13T21:48:40.609Z,0.7
2023-03-13T21:52:41.154Z,0.55
2023-03-13T21:56:40.375Z,0.6
2023-03-13T22:00:39.710Z,0.68
2023-03-13T22:04:40.728Z,0.6
2023-03-13T22:08:40.805Z,0.5
2023-03-13T22:12:40.279Z,0.73
2023-03-13T22:16:40.534Z,0.6
2023-03-13T22:20:40.569Z,0.95
2023-03-13T22:24:40.472Z,0.75
2023-03-13T22:28:40.817Z,1
2023-03-13T22:32:40.666Z,1
2023-03-13T22:36:40.327Z,0.85
2023-03-13T22:40:40.535Z,0.8
2023-03-13T22:44:40.476Z,0.93
2023-03-13T22:48:39.612Z,1.1
2023-03-13T22:52:40.561Z,1.23
2023-03-13T22:56:40.362Z,0.98
2023-03-13T23:00:40.042Z,1.25
2023-03-13T23:04:40.534Z,0.9
2023-03-13T23:08:42.817Z,0.8
2023-03-13T23:12:40.568Z,0.9
2023-03-13T23:16:40.430Z,0.9
2023-03-13T23:20:40.529Z,1.12
2023-03-13T23:24:40.537Z,1.17
2023-03-13T23:28:39.863Z,1
2023-03-13T23:32:40.590Z,0.95
2023-03-13T23:36:40.625Z,0.98
2023-03-13T23:40:41.597Z,1.02
2023-03-13T23:44:39.386Z,1.23
2023-03-13T23:48:40.473Z,1
2023-03-13T23:52:40.496Z,1.27
2023-03-13T23:56:40.484Z,0.52
